sensor_id;sensor_type;location;lat;lon;timestamp;temperature;humidity
17918;DHT22;9084;50.956;3.106;2022-09-01T00:01:38;19.80;1.00
17918;DHT22;9084;50.956;3.106;2022-09-01T00:04:07;19.70;1.00
17918;DHT22;9084;50.956;3.106;2022-09-01T00:06:34;19.60;1.00
17918;DHT22;9084;50.956;3.106;2022-09-01T00:09:06;19.60;1.00
17918;DHT22;9084;50.956;3.106;2022-09-01T00:11:35;19.50;1.00
17918;DHT22;9084;50.956;3.106;2022-09-01T00:14:05;19.50;1.00
17918;DHT22;9084;50.956;3.106;2022-09-01T00:16:34;19.40;1.00
17918;DHT22;9084;50.956;3.106;2022-09-01T00:19:06;19.40;1.00
17918;DHT22;9084;50.956;3.106;2022-09-01T00:21:43;19.40;1.00
17918;DHT22;9084;50.956;3.106;2022-09-01T00:24:10;19.40;1.00
17918;DHT22;9084;50.956;3.106;2022-09-01T00:26:39;19.40;1.00
17918;DHT22;9084;50.956;3.106;2022-09-01T00:29:07;19.30;1.00
17918;DHT22;9084;50.956;3.106;2022-09-01T00:31:33;19.20;1.00
17918;DHT22;9084;50.956;3.106;2022-09-01T00:33:59;19.20;1.00
17918;DHT22;9084;50.956;3.106;2022-09-01T00:36:28;19.20;1.00
17918;DHT22;9084;50.956;3.106;2022-09-01T00:38:54;19.10;1.00
17918;DHT22;9084;50.956;3.106;2022-09-01T00:41:23;19.10;1.00
17918;DHT22;9084;50.956;3.106;2022-09-01T00:43:55;19.00;1.00
17918;DHT22;9084;50.956;3.106;2022-09-01T00:46:23;19.00;1.00
17918;DHT22;9084;50.956;3.106;2022-09-01T00:49:02;18.90;1.00
17918;DHT22;9084;50.956;3.106;2022-09-01T00:51:32;18.90;1.00
17918;DHT22;9084;50.956;3.106;2022-09-01T00:54:03;18.90;1.00
17918;DHT22;9084;50.956;3.106;2022-09-01T00:56:31;18.80;1.00
17918;DHT22;9084;50.956;3.106;2022-09-01T00:58:58;18.70;1.00
17918;DHT22;9084;50.956;3.106;2022-09-01T01:01:24;18.70;1.00
17918;DHT22;9084;50.956;3.106;2022-09-01T01:03:53;18.70;1.00
17918;DHT22;9084;50.956;3.106;2022-09-01T01:06:19;18.60;1.00
17918;DHT22;9084;50.956;3.106;2022-09-01T01:08:51;18.60;1.00
17918;DHT22;9084;50.956;3.106;2022-09-01T01:11:28;18.50;1.00
17918;DHT22;9084;50.956;3.106;2022-09-01T01:14:06;18.50;1.00
17918;DHT22;9084;50.956;3.106;2022-09-01T01:16:45;18.50;1.00
17918;DHT22;9084;50.956;3.106;2022-09-01T01:22:09;18.50;1.00
17918;DHT22;9084;50.956;3.106;2022-09-01T01:24:58;18.40;1.00
17918;DHT22;9084;50.956;3.106;2022-09-01T01:27:33;18.40;1.00
17918;DHT22;9084;50.956;3.106;2022-09-01T01:30:04;18.30;1.00
17918;DHT22;9084;50.956;3.106;2022-09-01T01:32:32;18.30;1.00
17918;DHT22;9084;50.956;3.106;2022-09-01T01:35:00;18.30;1.00
17918;DHT22;9084;50.956;3.106;2022-09-01T01:37:32;18.30;1.00
17918;DHT22;9084;50.956;3.106;2022-09-01T01:39:59;18.20;1.00
17918;DHT22;9084;50.956;3.106;2022-09-01T01:42:25;18.20;1.00
17918;DHT22;9084;50.956;3.106;2022-09-01T01:44:57;18.20;1.00
17918;DHT22;9084;50.956;3.106;2022-09-01T01:47:23;18.20;1.00
17918;DHT22;9084;50.956;3.106;2022-09-01T01:49:49;18.20;1.00
17918;DHT22;9084;50.956;3.106;2022-09-01T01:52:15;18.10;1.00
17918;DHT22;9084;50.956;3.106;2022-09-01T01:54:44;18.10;1.00
17918;DHT22;9084;50.956;3.106;2022-09-01T01:57:14;18.10;1.00
17918;DHT22;9084;50.956;3.106;2022-09-01T01:59:42;18.10;1.00
17918;DHT22;9084;50.956;3.106;2022-09-01T02:02:08;18.00;1.00
17918;DHT22;9084;50.956;3.106;2022-09-01T02:04:39;18.00;1.00
17918;DHT22;9084;50.956;3.106;2022-09-01T02:07:09;18.00;1.00
17918;DHT22;9084;50.956;3.106;2022-09-01T02:09:39;18.00;1.00
17918;DHT22;9084;50.956;3.106;2022-09-01T02:12:12;18.00;1.00
17918;DHT22;9084;50.956;3.106;2022-09-01T02:14:43;17.90;1.00
17918;DHT22;9084;50.956;3.106;2022-09-01T02:17:09;17.90;1.00
17918;DHT22;9084;50.956;3.106;2022-09-01T02:19:35;17.90;1.00
17918;DHT22;9084;50.956;3.106;2022-09-01T02:22:09;17.90;1.00
17918;DHT22;9084;50.956;3.106;2022-09-01T02:24:37;17.90;1.00
17918;DHT22;9084;50.956;3.106;2022-09-01T02:27:11;18.00;1.00
17918;DHT22;9084;50.956;3.106;2022-09-01T02:29:37;17.90;1.00
17918;DHT22;9084;50.956;3.106;2022-09-01T02:32:03;17.90;1.00
17918;DHT22;9084;50.956;3.106;2022-09-01T02:34:29;17.90;1.00
17918;DHT22;9084;50.956;3.106;2022-09-01T02:36:56;17.90;1.00
17918;DHT22;9084;50.956;3.106;2022-09-01T02:39:27;17.90;1.00
17918;DHT22;9084;50.956;3.106;2022-09-01T02:41:53;17.90;1.00
17918;DHT22;9084;50.956;3.106;2022-09-01T02:44:22;17.80;1.00
17918;DHT22;9084;50.956;3.106;2022-09-01T02:46:49;17.80;1.00
17918;DHT22;9084;50.956;3.106;2022-09-01T02:49:18;17.80;1.00
17918;DHT22;9084;50.956;3.106;2022-09-01T02:51:47;17.80;1.00
17918;DHT22;9084;50.956;3.106;2022-09-01T02:54:16;17.80;1.00
17918;DHT22;9084;50.956;3.106;2022-09-01T02:56:46;17.70;1.00
17918;DHT22;9084;50.956;3.106;2022-09-01T02:59:17;17.70;1.00
17918;DHT22;9084;50.956;3.106;2022-09-01T03:01:47;17.70;1.00
17918;DHT22;9084;50.956;3.106;2022-09-01T03:04:15;17.70;1.00
17918;DHT22;9084;50.956;3.106;2022-09-01T03:06:45;17.60;1.00
17918;DHT22;9084;50.956;3.106;2022-09-01T03:09:14;17.60;1.00
17918;DHT22;9084;50.956;3.106;2022-09-01T03:11:42;17.60;1.00
17918;DHT22;9084;50.956;3.106;2022-09-01T03:14:08;17.60;1.00
17918;DHT22;9084;50.956;3.106;2022-09-01T03:16:35;17.60;1.00
17918;DHT22;9084;50.956;3.106;2022-09-01T03:19:05;17.60;1.00
17918;DHT22;9084;50.956;3.106;2022-09-01T03:21:39;17.50;1.00
17918;DHT22;9084;50.956;3.106;2022-09-01T03:24:10;17.40;1.00
17918;DHT22;9084;50.956;3.106;2022-09-01T03:26:45;17.50;1.00
17918;DHT22;9084;50.956;3.106;2022-09-01T03:29:13;17.50;1.00
17918;DHT22;9084;50.956;3.106;2022-09-01T03:31:40;17.40;1.00
17918;DHT22;9084;50.956;3.106;2022-09-01T03:34:07;17.40;1.00
17918;DHT22;9084;50.956;3.106;2022-09-01T03:36:38;17.40;1.00
17918;DHT22;9084;50.956;3.106;2022-09-01T03:39:08;17.40;1.00
17918;DHT22;9084;50.956;3.106;2022-09-01T03:41:34;17.40;1.00
17918;DHT22;9084;50.956;3.106;2022-09-01T03:44:01;17.40;1.00
17918;DHT22;9084;50.956;3.106;2022-09-01T03:46:28;17.40;1.00
17918;DHT22;9084;50.956;3.106;2022-09-01T03:48:57;17.30;1.00
17918;DHT22;9084;50.956;3.106;2022-09-01T03:51:25;17.40;1.00
17918;DHT22;9084;50.956;3.106;2022-09-01T03:53:52;17.40;1.00
17918;DHT22;9084;50.956;3.106;2022-09-01T03:56:19;17.40;1.00
17918;DHT22;9084;50.956;3.106;2022-09-01T03:58:46;17.30;1.00
17918;DHT22;9084;50.956;3.106;2022-09-01T04:01:12;17.30;1.00
17918;DHT22;9084;50.956;3.106;2022-09-01T04:03:38;17.20;1.00
17918;DHT22;9084;50.956;3.106;2022-09-01T04:06:08;17.20;1.00
17918;DHT22;9084;50.956;3.106;2022-09-01T04:08:37;17.10;1.00
17918;DHT22;9084;50.956;3.106;2022-09-01T04:11:10;17.10;1.00
17918;DHT22;9084;50.956;3.106;2022-09-01T04:13:40;17.10;1.00
17918;DHT22;9084;50.956;3.106;2022-09-01T04:16:17;17.10;1.00
17918;DHT22;9084;50.956;3.106;2022-09-01T04:19:03;17.10;1.00
17918;DHT22;9084;50.956;3.106;2022-09-01T04:21:43;17.00;1.00
17918;DHT22;9084;50.956;3.106;2022-09-01T04:24:10;17.00;1.00
17918;DHT22;9084;50.956;3.106;2022-09-01T04:26:40;17.00;1.00
17918;DHT22;9084;50.956;3.106;2022-09-01T04:29:06;17.00;1.00
17918;DHT22;9084;50.956;3.106;2022-09-01T04:31:38;16.90;1.00
17918;DHT22;9084;50.956;3.106;2022-09-01T04:34:05;16.90;1.00
17918;DHT22;9084;50.956;3.106;2022-09-01T04:36:50;16.90;1.00
17918;DHT22;9084;50.956;3.106;2022-09-01T04:39:21;16.90;1.00
17918;DHT22;9084;50.956;3.106;2022-09-01T04:41:47;16.90;1.00
17918;DHT22;9084;50.956;3.106;2022-09-01T04:44:14;16.90;1.00
17918;DHT22;9084;50.956;3.106;2022-09-01T04:46:42;16.80;1.00
17918;DHT22;9084;50.956;3.106;2022-09-01T04:49:14;16.80;1.00
17918;DHT22;9084;50.956;3.106;2022-09-01T04:51:49;16.80;1.00
17918;DHT22;9084;50.956;3.106;2022-09-01T04:54:16;16.80;1.00
17918;DHT22;9084;50.956;3.106;2022-09-01T04:56:45;16.70;1.00
17918;DHT22;9084;50.956;3.106;2022-09-01T04:59:12;16.70;1.00
17918;DHT22;9084;50.956;3.106;2022-09-01T05:01:39;16.70;1.00
17918;DHT22;9084;50.956;3.106;2022-09-01T05:04:31;16.60;1.00
17918;DHT22;9084;50.956;3.106;2022-09-01T05:07:01;16.60;1.00
17918;DHT22;9084;50.956;3.106;2022-09-01T05:09:30;16.60;1.00
17918;DHT22;9084;50.956;3.106;2022-09-01T05:11:59;16.60;1.00
17918;DHT22;9084;50.956;3.106;2022-09-01T05:14:37;16.60;1.00
17918;DHT22;9084;50.956;3.106;2022-09-01T05:17:07;16.60;1.00
17918;DHT22;9084;50.956;3.106;2022-09-01T05:19:42;16.60;1.00
17918;DHT22;9084;50.956;3.106;2022-09-01T05:22:09;16.60;1.00
17918;DHT22;9084;50.956;3.106;2022-09-01T05:24:36;16.60;1.00
17918;DHT22;9084;50.956;3.106;2022-09-01T05:27:05;16.60;1.00
17918;DHT22;9084;50.956;3.106;2022-09-01T05:29:31;16.60;1.00
17918;DHT22;9084;50.956;3.106;2022-09-01T05:32:02;16.60;1.00
17918;DHT22;9084;50.956;3.106;2022-09-01T05:34:33;16.70;1.00
17918;DHT22;9084;50.956;3.106;2022-09-01T05:37:02;16.70;1.00
17918;DHT22;9084;50.956;3.106;2022-09-01T05:39:31;16.80;1.00
17918;DHT22;9084;50.956;3.106;2022-09-01T05:42:03;16.70;1.00
17918;DHT22;9084;50.956;3.106;2022-09-01T05:44:32;16.80;1.00
17918;DHT22;9084;50.956;3.106;2022-09-01T05:46:58;16.80;1.00
17918;DHT22;9084;50.956;3.106;2022-09-01T05:49:24;16.80;1.00
17918;DHT22;9084;50.956;3.106;2022-09-01T05:51:53;16.80;1.00
17918;DHT22;9084;50.956;3.106;2022-09-01T05:54:24;16.80;1.00
17918;DHT22;9084;50.956;3.106;2022-09-01T05:56:54;16.80;1.00
17918;DHT22;9084;50.956;3.106;2022-09-01T05:59:24;16.90;1.00
17918;DHT22;9084;50.956;3.106;2022-09-01T06:01:51;16.90;1.00
17918;DHT22;9084;50.956;3.106;2022-09-01T06:04:17;16.90;1.00
17918;DHT22;9084;50.956;3.106;2022-09-01T06:06:47;17.00;1.00
17918;DHT22;9084;50.956;3.106;2022-09-01T06:09:15;17.00;1.00
17918;DHT22;9084;50.956;3.106;2022-09-01T06:11:44;17.00;1.00
17918;DHT22;9084;50.956;3.106;2022-09-01T06:14:15;17.10;1.00
17918;DHT22;9084;50.956;3.106;2022-09-01T06:16:41;17.20;1.00
17918;DHT22;9084;50.956;3.106;2022-09-01T06:19:11;17.10;1.00
17918;DHT22;9084;50.956;3.106;2022-09-01T06:21:40;17.20;1.00
17918;DHT22;9084;50.956;3.106;2022-09-01T06:24:06;17.20;1.00
17918;DHT22;9084;50.956;3.106;2022-09-01T06:26:34;17.30;1.00
17918;DHT22;9084;50.956;3.106;2022-09-01T06:29:03;17.30;1.00
17918;DHT22;9084;50.956;3.106;2022-09-01T06:31:32;17.40;1.00
17918;DHT22;9084;50.956;3.106;2022-09-01T06:34:01;17.40;1.00
17918;DHT22;9084;50.956;3.106;2022-09-01T06:36:28;17.40;1.00
17918;DHT22;9084;50.956;3.106;2022-09-01T06:38:57;17.40;1.00
17918;DHT22;9084;50.956;3.106;2022-09-01T06:41:26;17.50;1.00
17918;DHT22;9084;50.956;3.106;2022-09-01T06:43:54;17.50;1.00
17918;DHT22;9084;50.956;3.106;2022-09-01T06:46:28;17.50;1.00
17918;DHT22;9084;50.956;3.106;2022-09-01T06:48:55;17.60;1.00
17918;DHT22;9084;50.956;3.106;2022-09-01T06:51:26;17.60;1.00
17918;DHT22;9084;50.956;3.106;2022-09-01T06:53:54;17.60;1.00
17918;DHT22;9084;50.956;3.106;2022-09-01T06:56:27;17.70;1.00
17918;DHT22;9084;50.956;3.106;2022-09-01T06:58:57;17.70;1.00
17918;DHT22;9084;50.956;3.106;2022-09-01T07:01:23;17.80;1.00
17918;DHT22;9084;50.956;3.106;2022-09-01T07:03:53;17.90;1.00
17918;DHT22;9084;50.956;3.106;2022-09-01T07:06:22;17.90;1.00
17918;DHT22;9084;50.956;3.106;2022-09-01T07:09:02;18.00;1.00
17918;DHT22;9084;50.956;3.106;2022-09-01T07:11:33;18.10;1.00
17918;DHT22;9084;50.956;3.106;2022-09-01T07:14:05;18.10;1.00
17918;DHT22;9084;50.956;3.106;2022-09-01T07:16:36;18.10;1.00
17918;DHT22;9084;50.956;3.106;2022-09-01T07:19:06;18.30;1.00
17918;DHT22;9084;50.956;3.106;2022-09-01T07:21:40;18.30;1.00
17918;DHT22;9084;50.956;3.106;2022-09-01T07:24:07;18.40;1.00
17918;DHT22;9084;50.956;3.106;2022-09-01T07:26:35;18.40;1.00
17918;DHT22;9084;50.956;3.106;2022-09-01T07:29:08;18.50;1.00
17918;DHT22;9084;50.956;3.106;2022-09-01T07:31:36;18.60;1.00
17918;DHT22;9084;50.956;3.106;2022-09-01T07:34:06;18.70;1.00
17918;DHT22;9084;50.956;3.106;2022-09-01T07:36:40;18.80;1.00
17918;DHT22;9084;50.956;3.106;2022-09-01T07:39:29;18.90;1.00
17918;DHT22;9084;50.956;3.106;2022-09-01T07:41:58;19.00;1.00
17918;DHT22;9084;50.956;3.106;2022-09-01T07:44:24;19.10;1.00
17918;DHT22;9084;50.956;3.106;2022-09-01T07:46:53;19.20;1.00
17918;DHT22;9084;50.956;3.106;2022-09-01T07:49:19;19.30;1.00
17918;DHT22;9084;50.956;3.106;2022-09-01T07:51:48;19.30;1.00
17918;DHT22;9084;50.956;3.106;2022-09-01T07:54:17;19.40;1.00
17918;DHT22;9084;50.956;3.106;2022-09-01T07:56:46;19.50;1.00
17918;DHT22;9084;50.956;3.106;2022-09-01T07:59:11;19.50;1.00
17918;DHT22;9084;50.956;3.106;2022-09-01T08:01:39;19.60;1.00
17918;DHT22;9084;50.956;3.106;2022-09-01T08:04:05;19.70;1.00
17918;DHT22;9084;50.956;3.106;2022-09-01T08:06:33;19.70;1.00
17918;DHT22;9084;50.956;3.106;2022-09-01T08:09:03;19.80;1.00
17918;DHT22;9084;50.956;3.106;2022-09-01T08:11:31;19.80;1.00
17918;DHT22;9084;50.956;3.106;2022-09-01T08:13:58;19.80;1.00
17918;DHT22;9084;50.956;3.106;2022-09-01T08:16:29;19.90;1.00
17918;DHT22;9084;50.956;3.106;2022-09-01T08:18:56;20.00;1.00
17918;DHT22;9084;50.956;3.106;2022-09-01T08:21:23;20.00;1.00
17918;DHT22;9084;50.956;3.106;2022-09-01T08:23:53;20.10;1.00
17918;DHT22;9084;50.956;3.106;2022-09-01T08:26:22;20.20;1.00
17918;DHT22;9084;50.956;3.106;2022-09-01T08:28:48;20.30;1.00
17918;DHT22;9084;50.956;3.106;2022-09-01T08:31:17;20.30;1.00
17918;DHT22;9084;50.956;3.106;2022-09-01T08:33:47;20.40;1.00
17918;DHT22;9084;50.956;3.106;2022-09-01T08:36:17;20.50;1.00
17918;DHT22;9084;50.956;3.106;2022-09-01T08:38:43;20.60;1.00
17918;DHT22;9084;50.956;3.106;2022-09-01T08:46:45;20.90;1.00
17918;DHT22;9084;50.956;3.106;2022-09-01T08:49:18;20.90;1.00
17918;DHT22;9084;50.956;3.106;2022-09-01T08:52:10;21.00;1.00
17918;DHT22;9084;50.956;3.106;2022-09-01T08:55:43;21.10;1.00
17918;DHT22;9084;50.956;3.106;2022-09-01T08:57:42;21.20;1.00
17918;DHT22;9084;50.956;3.106;2022-09-01T09:00:12;21.30;1.00
17918;DHT22;9084;50.956;3.106;2022-09-01T09:06:16;21.50;1.00
17918;DHT22;9084;50.956;3.106;2022-09-01T09:08:57;21.60;1.00
17918;DHT22;9084;50.956;3.106;2022-09-01T09:11:38;21.70;1.00
17918;DHT22;9084;50.956;3.106;2022-09-01T09:17:04;21.80;99.90
17918;DHT22;9084;50.956;3.106;2022-09-01T09:19:41;21.90;99.90
17918;DHT22;9084;50.956;3.106;2022-09-01T09:22:10;22.00;99.90
17918;DHT22;9084;50.956;3.106;2022-09-01T09:24:52;22.00;99.90
17918;DHT22;9084;50.956;3.106;2022-09-01T09:27:22;22.10;99.90
17918;DHT22;9084;50.956;3.106;2022-09-01T09:29:55;22.20;99.90
17918;DHT22;9084;50.956;3.106;2022-09-01T09:32:24;22.20;99.90
17918;DHT22;9084;50.956;3.106;2022-09-01T09:34:50;22.30;99.90
17918;DHT22;9084;50.956;3.106;2022-09-01T09:37:29;22.30;99.90
17918;DHT22;9084;50.956;3.106;2022-09-01T09:40:06;22.40;99.90
17918;DHT22;9084;50.956;3.106;2022-09-01T09:43:00;22.40;99.90
17918;DHT22;9084;50.956;3.106;2022-09-01T09:47:58;22.50;99.90
17918;DHT22;9084;50.956;3.106;2022-09-01T09:50:29;22.50;99.90
17918;DHT22;9084;50.956;3.106;2022-09-01T09:53:25;22.60;99.90
17918;DHT22;9084;50.956;3.106;2022-09-01T09:56:24;22.70;99.90
17918;DHT22;9084;50.956;3.106;2022-09-01T09:58:51;22.90;99.90
17918;DHT22;9084;50.956;3.106;2022-09-01T10:03:52;23.10;99.90
17918;DHT22;9084;50.956;3.106;2022-09-01T10:06:36;23.30;99.90
17918;DHT22;9084;50.956;3.106;2022-09-01T10:09:08;23.40;1.00
17918;DHT22;9084;50.956;3.106;2022-09-01T10:11:38;23.40;1.00
17918;DHT22;9084;50.956;3.106;2022-09-01T10:14:19;23.40;1.00
17918;DHT22;9084;50.956;3.106;2022-09-01T10:16:51;23.60;1.00
17918;DHT22;9084;50.956;3.106;2022-09-01T10:19:19;23.70;1.00
17918;DHT22;9084;50.956;3.106;2022-09-01T10:21:46;23.70;1.00
17918;DHT22;9084;50.956;3.106;2022-09-01T10:24:37;23.80;1.00
17918;DHT22;9084;50.956;3.106;2022-09-01T10:27:17;23.90;1.00
17918;DHT22;9084;50.956;3.106;2022-09-01T10:32:52;24.10;1.00
17918;DHT22;9084;50.956;3.106;2022-09-01T10:35:34;24.10;1.00
17918;DHT22;9084;50.956;3.106;2022-09-01T10:38:08;24.20;1.00
17918;DHT22;9084;50.956;3.106;2022-09-01T10:40:47;24.20;1.00
17918;DHT22;9084;50.956;3.106;2022-09-01T10:46:40;24.30;99.90
17918;DHT22;9084;50.956;3.106;2022-09-01T10:49:58;24.30;99.90
17918;DHT22;9084;50.956;3.106;2022-09-01T10:52:00;24.20;91.20
17918;DHT22;9084;50.956;3.106;2022-09-01T10:59:54;24.20;95.00
17918;DHT22;9084;50.956;3.106;2022-09-01T11:02:39;24.30;1.00
17918;DHT22;9084;50.956;3.106;2022-09-01T11:07:34;24.30;4.20
17918;DHT22;9084;50.956;3.106;2022-09-01T11:10:08;24.30;99.90
17918;DHT22;9084;50.956;3.106;2022-09-01T11:15:36;24.30;1.00
17918;DHT22;9084;50.956;3.106;2022-09-01T11:18:26;24.30;1.00
17918;DHT22;9084;50.956;3.106;2022-09-01T11:20:52;24.40;1.00
17918;DHT22;9084;50.956;3.106;2022-09-01T11:23:27;24.50;1.00
17918;DHT22;9084;50.956;3.106;2022-09-01T11:25:58;24.60;1.00
17918;DHT22;9084;50.956;3.106;2022-09-01T11:36:42;25.00;1.00
17918;DHT22;9084;50.956;3.106;2022-09-01T11:42:06;25.20;1.00
17918;DHT22;9084;50.956;3.106;2022-09-01T11:44:58;25.20;99.90
17918;DHT22;9084;50.956;3.106;2022-09-01T11:47:29;25.20;99.90
17918;DHT22;9084;50.956;3.106;2022-09-01T11:50:34;25.20;99.90
17918;DHT22;9084;50.956;3.106;2022-09-01T11:53:07;25.30;1.00
17918;DHT22;9084;50.956;3.106;2022-09-01T11:58:08;25.30;1.00
17918;DHT22;9084;50.956;3.106;2022-09-01T12:00:37;25.30;80.80
17918;DHT22;9084;50.956;3.106;2022-09-01T12:03:28;25.30;99.90
17918;DHT22;9084;50.956;3.106;2022-09-01T12:05:58;25.40;1.00
17918;DHT22;9084;50.956;3.106;2022-09-01T12:08:27;25.40;1.00
17918;DHT22;9084;50.956;3.106;2022-09-01T12:11:20;25.30;99.90
17918;DHT22;9084;50.956;3.106;2022-09-01T12:14:02;25.40;99.90
17918;DHT22;9084;50.956;3.106;2022-09-01T12:16:32;25.40;99.90
17918;DHT22;9084;50.956;3.106;2022-09-01T12:19:03;25.50;1.00
17918;DHT22;9084;50.956;3.106;2022-09-01T12:21:35;25.60;1.00
17918;DHT22;9084;50.956;3.106;2022-09-01T12:24:23;25.60;1.00
17918;DHT22;9084;50.956;3.106;2022-09-01T12:26:53;25.70;1.00
17918;DHT22;9084;50.956;3.106;2022-09-01T12:29:20;25.70;1.00
17918;DHT22;9084;50.956;3.106;2022-09-01T12:31:49;25.90;1.00
17918;DHT22;9084;50.956;3.106;2022-09-01T12:37:06;26.00;90.30
17918;DHT22;9084;50.956;3.106;2022-09-01T12:39:43;26.20;1.00
17918;DHT22;9084;50.956;3.106;2022-09-01T12:50:30;26.60;1.00
17918;DHT22;9084;50.956;3.106;2022-09-01T12:52:54;26.70;99.90
17918;DHT22;9084;50.956;3.106;2022-09-01T12:55:28;26.70;1.00
17918;DHT22;9084;50.956;3.106;2022-09-01T12:58:02;26.70;1.00
17918;DHT22;9084;50.956;3.106;2022-09-01T13:00:53;26.70;1.00
17918;DHT22;9084;50.956;3.106;2022-09-01T13:03:19;26.70;1.00
17918;DHT22;9084;50.956;3.106;2022-09-01T13:05:56;26.90;1.00
17918;DHT22;9084;50.956;3.106;2022-09-01T13:08:33;27.00;1.00
17918;DHT22;9084;50.956;3.106;2022-09-01T13:11:18;27.00;1.00
17918;DHT22;9084;50.956;3.106;2022-09-01T13:13:47;27.10;1.00
17918;DHT22;9084;50.956;3.106;2022-09-01T13:16:12;27.10;1.00
17918;DHT22;9084;50.956;3.106;2022-09-01T13:18:40;27.30;1.00
17918;DHT22;9084;50.956;3.106;2022-09-01T13:21:06;27.50;99.90
17918;DHT22;9084;50.956;3.106;2022-09-01T13:23:32;27.50;99.90
17918;DHT22;9084;50.956;3.106;2022-09-01T13:25:58;27.60;99.90
17918;DHT22;9084;50.956;3.106;2022-09-01T13:28:26;27.60;1.00
17918;DHT22;9084;50.956;3.106;2022-09-01T13:31:01;27.50;1.00
17918;DHT22;9084;50.956;3.106;2022-09-01T13:33:31;27.40;1.00
17918;DHT22;9084;50.956;3.106;2022-09-01T13:35:59;27.30;1.00
17918;DHT22;9084;50.956;3.106;2022-09-01T13:38:27;27.40;1.00
17918;DHT22;9084;50.956;3.106;2022-09-01T13:40:53;27.50;1.00
17918;DHT22;9084;50.956;3.106;2022-09-01T13:43:22;27.50;1.00
17918;DHT22;9084;50.956;3.106;2022-09-01T13:45:52;27.50;1.00
17918;DHT22;9084;50.956;3.106;2022-09-01T13:48:19;27.40;1.00
17918;DHT22;9084;50.956;3.106;2022-09-01T13:50:49;27.20;1.00
17918;DHT22;9084;50.956;3.106;2022-09-01T13:53:17;27.00;1.00
17918;DHT22;9084;50.956;3.106;2022-09-01T13:55:45;27.00;1.00
17918;DHT22;9084;50.956;3.106;2022-09-01T13:58:14;26.90;1.00
17918;DHT22;9084;50.956;3.106;2022-09-01T14:00:43;26.80;1.00
17918;DHT22;9084;50.956;3.106;2022-09-01T14:03:13;26.90;1.00
17918;DHT22;9084;50.956;3.106;2022-09-01T14:05:41;27.00;1.00
17918;DHT22;9084;50.956;3.106;2022-09-01T14:08:09;27.20;1.00
17918;DHT22;9084;50.956;3.106;2022-09-01T14:10:41;27.30;1.00
17918;DHT22;9084;50.956;3.106;2022-09-01T14:13:11;27.40;1.00
17918;DHT22;9084;50.956;3.106;2022-09-01T14:15:37;27.40;1.00
17918;DHT22;9084;50.956;3.106;2022-09-01T14:18:03;27.50;99.90
17918;DHT22;9084;50.956;3.106;2022-09-01T14:20:37;27.60;1.00
17918;DHT22;9084;50.956;3.106;2022-09-01T14:23:05;27.70;99.90
17918;DHT22;9084;50.956;3.106;2022-09-01T14:25:34;27.80;99.90
17918;DHT22;9084;50.956;3.106;2022-09-01T14:28:00;27.80;99.90
17918;DHT22;9084;50.956;3.106;2022-09-01T14:30:28;27.90;13.00
17918;DHT22;9084;50.956;3.106;2022-09-01T14:32:55;27.90;1.00
17918;DHT22;9084;50.956;3.106;2022-09-01T14:35:24;27.90;1.00
17918;DHT22;9084;50.956;3.106;2022-09-01T14:37:53;28.00;1.00
17918;DHT22;9084;50.956;3.106;2022-09-01T14:40:21;27.90;1.00
17918;DHT22;9084;50.956;3.106;2022-09-01T14:42:50;27.70;1.00
17918;DHT22;9084;50.956;3.106;2022-09-01T14:45:20;27.60;1.00
17918;DHT22;9084;50.956;3.106;2022-09-01T14:47:49;27.40;1.00
17918;DHT22;9084;50.956;3.106;2022-09-01T14:50:16;27.20;1.00
17918;DHT22;9084;50.956;3.106;2022-09-01T14:52:42;27.10;1.00
17918;DHT22;9084;50.956;3.106;2022-09-01T14:55:11;27.00;1.00
17918;DHT22;9084;50.956;3.106;2022-09-01T14:57:39;26.80;1.00
17918;DHT22;9084;50.956;3.106;2022-09-01T15:00:07;26.80;1.00
17918;DHT22;9084;50.956;3.106;2022-09-01T15:02:38;26.80;1.00
17918;DHT22;9084;50.956;3.106;2022-09-01T15:05:04;26.80;1.00
17918;DHT22;9084;50.956;3.106;2022-09-01T15:07:30;26.80;1.00
17918;DHT22;9084;50.956;3.106;2022-09-01T15:09:58;26.80;1.00
17918;DHT22;9084;50.956;3.106;2022-09-01T15:12:27;26.80;1.00
17918;DHT22;9084;50.956;3.106;2022-09-01T15:14:56;26.80;1.00
17918;DHT22;9084;50.956;3.106;2022-09-01T15:17:27;26.80;1.00
17918;DHT22;9084;50.956;3.106;2022-09-01T15:19:55;26.70;1.00
17918;DHT22;9084;50.956;3.106;2022-09-01T15:22:41;26.80;1.00
17918;DHT22;9084;50.956;3.106;2022-09-01T15:25:10;26.80;1.00
17918;DHT22;9084;50.956;3.106;2022-09-01T15:27:35;26.80;1.00
17918;DHT22;9084;50.956;3.106;2022-09-01T15:30:01;26.60;1.00
17918;DHT22;9084;50.956;3.106;2022-09-01T15:32:29;26.60;1.00
17918;DHT22;9084;50.956;3.106;2022-09-01T15:34:57;26.70;1.00
17918;DHT22;9084;50.956;3.106;2022-09-01T15:37:25;26.80;1.00
17918;DHT22;9084;50.956;3.106;2022-09-01T15:39:51;26.80;1.00
17918;DHT22;9084;50.956;3.106;2022-09-01T15:42:19;26.70;1.00
17918;DHT22;9084;50.956;3.106;2022-09-01T15:44:47;26.80;1.00
17918;DHT22;9084;50.956;3.106;2022-09-01T15:47:13;26.70;1.00
17918;DHT22;9084;50.956;3.106;2022-09-01T15:49:39;26.70;1.00
17918;DHT22;9084;50.956;3.106;2022-09-01T15:52:07;26.70;1.00
17918;DHT22;9084;50.956;3.106;2022-09-01T15:54:36;26.90;1.00
17918;DHT22;9084;50.956;3.106;2022-09-01T15:57:03;26.80;1.00
17918;DHT22;9084;50.956;3.106;2022-09-01T15:59:29;26.90;1.00
17918;DHT22;9084;50.956;3.106;2022-09-01T16:01:57;27.00;1.00
17918;DHT22;9084;50.956;3.106;2022-09-01T16:04:23;27.00;1.00
17918;DHT22;9084;50.956;3.106;2022-09-01T16:06:49;27.00;1.00
17918;DHT22;9084;50.956;3.106;2022-09-01T16:09:17;27.00;1.00
17918;DHT22;9084;50.956;3.106;2022-09-01T16:11:47;26.90;1.00
17918;DHT22;9084;50.956;3.106;2022-09-01T16:14:13;26.90;1.00
17918;DHT22;9084;50.956;3.106;2022-09-01T16:24:55;26.90;1.00
17918;DHT22;9084;50.956;3.106;2022-09-01T16:27:44;26.90;1.00
17918;DHT22;9084;50.956;3.106;2022-09-01T16:30:18;26.90;1.00
17918;DHT22;9084;50.956;3.106;2022-09-01T16:32:46;26.90;1.00
17918;DHT22;9084;50.956;3.106;2022-09-01T16:35:13;26.80;1.00
17918;DHT22;9084;50.956;3.106;2022-09-01T16:38:11;26.80;99.90
17918;DHT22;9084;50.956;3.106;2022-09-01T16:40:54;26.70;1.00
17918;DHT22;9084;50.956;3.106;2022-09-01T16:43:31;26.50;1.00
17918;DHT22;9084;50.956;3.106;2022-09-01T16:48:53;26.30;1.00
17918;DHT22;9084;50.956;3.106;2022-09-01T16:51:47;26.20;1.00
17918;DHT22;9084;50.956;3.106;2022-09-01T16:54:35;26.10;1.00
17918;DHT22;9084;50.956;3.106;2022-09-01T16:59:58;26.10;1.00
17918;DHT22;9084;50.956;3.106;2022-09-01T17:02:31;26.10;1.00
17918;DHT22;9084;50.956;3.106;2022-09-01T17:10:32;25.90;1.00
17918;DHT22;9084;50.956;3.106;2022-09-01T17:13:10;25.90;1.00
17918;DHT22;9084;50.956;3.106;2022-09-01T17:15:42;25.80;1.00
17918;DHT22;9084;50.956;3.106;2022-09-01T17:18:43;25.70;1.00
17918;DHT22;9084;50.956;3.106;2022-09-01T17:21:20;25.60;1.00
17918;DHT22;9084;50.956;3.106;2022-09-01T17:24:09;25.40;1.00
17918;DHT22;9084;50.956;3.106;2022-09-01T17:26:42;25.30;1.00
17918;DHT22;9084;50.956;3.106;2022-09-01T17:32:02;25.10;1.00
17918;DHT22;9084;50.956;3.106;2022-09-01T17:34:54;24.90;1.00
17918;DHT22;9084;50.956;3.106;2022-09-01T17:40:20;24.80;1.00
17918;DHT22;9084;50.956;3.106;2022-09-01T17:52:15;24.40;1.00
17918;DHT22;9084;50.956;3.106;2022-09-01T17:57:31;24.20;1.00
17918;DHT22;9084;50.956;3.106;2022-09-01T18:06:06;24.00;99.90
17918;DHT22;9084;50.956;3.106;2022-09-01T18:08:41;23.90;99.90
17918;DHT22;9084;50.956;3.106;2022-09-01T18:11:20;23.70;99.90